createdAt,value
2017-09-28T00:00:18.765Z,97.40
2017-09-28T00:02:45.861Z,97.30
2017-09-28T00:05:12.233Z,97.50
2017-09-28T00:07:38.585Z,97.60
2017-09-28T00:10:05.736Z,97.60
2017-09-28T00:12:32.100Z,97.50
2017-09-28T00:14:58.471Z,97.50
2017-09-28T00:17:24.830Z,97.60
2017-09-28T00:19:51.941Z,97.80
2017-09-28T00:22:18.285Z,97.70
2017-09-28T00:24:45.747Z,97.60
2017-09-28T00:27:12.141Z,97.60
2017-09-28T00:29:39.252Z,97.50
2017-09-28T00:32:05.685Z,97.30
2017-09-28T00:34:32.105Z,97.30
2017-09-28T00:36:58.555Z,97.20
2017-09-28T00:39:24.963Z,97.20
2017-09-28T00:41:51.355Z,97.10
2017-09-28T00:44:17.753Z,97.10
2017-09-28T00:46:44.184Z,97.10
2017-09-28T00:49:10.568Z,97.20
2017-09-28T00:51:38.054Z,97.20
2017-09-28T00:54:05.362Z,97.20
2017-09-28T00:56:31.824Z,97.10
2017-09-28T00:58:58.980Z,97.20
2017-09-28T01:01:25.346Z,97.20
2017-09-28T01:03:51.722Z,97.20
2017-09-28T01:06:18.807Z,97.60
2017-09-28T01:08:45.160Z,97.50
2017-09-28T01:11:11.563Z,97.70
2017-09-28T01:13:38.255Z,97.80
2017-09-28T01:16:04.634Z,97.80
2017-09-28T01:18:30.994Z,97.80
2017-09-28T01:20:57.352Z,97.70
2017-09-28T01:23:24.457Z,97.60
2017-09-28T01:25:50.873Z,97.60
2017-09-28T01:28:17.286Z,97.50
2017-09-28T01:30:43.757Z,97.50
2017-09-28T01:33:10.152Z,97.50
2017-09-28T01:35:36.554Z,97.50
2017-09-28T01:38:03.671Z,97.60
2017-09-28T01:40:30.336Z,97.50
2017-09-28T01:42:56.705Z,97.50
2017-09-28T01:45:23.811Z,98.00
2017-09-28T01:47:50.212Z,97.90
2017-09-28T01:50:16.630Z,98.10
2017-09-28T01:52:43.080Z,98.10
2017-09-28T01:55:09.492Z,98.10
2017-09-28T01:57:35.848Z,98.10
2017-09-28T02:00:02.476Z,98.00
2017-09-28T02:02:28.836Z,98.10
2017-09-28T02:04:55.935Z,98.60
2017-09-28T02:07:22.741Z,98.50
2017-09-28T02:09:49.124Z,98.20
2017-09-28T02:12:15.484Z,98.10
2017-09-28T02:14:42.644Z,98.30
2017-09-28T02:17:09.750Z,98.20
2017-09-28T02:19:36.107Z,98.20
2017-09-28T02:22:03.252Z,98.20
2017-09-28T02:24:30.407Z,98.20
2017-09-28T02:26:57.513Z,98.20
2017-09-28T02:29:23.918Z,98.10
2017-09-28T02:31:50.262Z,98.20
2017-09-28T02:34:16.672Z,98.40
2017-09-28T02:36:43.065Z,98.60
2017-09-28T02:39:10.188Z,98.60
2017-09-28T02:41:37.755Z,98.60
2017-09-28T02:44:04.101Z,98.60
2017-09-28T02:46:30.448Z,98.50
2017-09-28T02:48:56.832Z,98.30
2017-09-28T02:51:23.187Z,98.40
2017-09-28T02:53:49.544Z,98.30
2017-09-28T02:56:16.016Z,98.60
2017-09-28T02:58:42.368Z,98.30
2017-09-28T03:01:08.735Z,98.30
2017-09-28T03:03:35.096Z,98.30
2017-09-28T03:06:01.438Z,98.40
2017-09-28T03:08:27.834Z,98.50
2017-09-28T03:10:54.178Z,98.40
2017-09-28T03:13:20.537Z,98.40
2017-09-28T03:15:46.862Z,98.30
2017-09-28T03:18:13.244Z,98.30
2017-09-28T03:20:39.611Z,98.50
2017-09-28T03:23:05.972Z,98.90
2017-09-28T03:25:32.352Z,99.50
2017-09-28T03:27:58.741Z,98.90
2017-09-28T03:30:25.834Z,98.10
2017-09-28T03:32:52.196Z,98.10
2017-09-28T03:35:18.555Z,96.60
2017-09-28T03:37:45.668Z,94.60
2017-09-28T03:40:12.418Z,94.60
2017-09-28T03:42:39.535Z,93.90
2017-09-28T03:45:05.898Z,94.20
2017-09-28T03:47:33.045Z,93.00
2017-09-28T03:50:00.189Z,93.30
2017-09-28T03:52:26.624Z,93.30
2017-09-28T03:54:53.083Z,93.50
2017-09-28T03:57:20.212Z,92.70
2017-09-28T03:59:46.689Z,92.70
2017-09-28T04:02:13.150Z,92.30
2017-09-28T04:04:39.508Z,92.20
2017-09-28T04:07:06.592Z,91.50
2017-09-28T04:09:33.001Z,91.80
2017-09-28T04:11:59.385Z,92.00
2017-09-28T04:14:25.772Z,91.80
2017-09-28T04:16:52.144Z,91.50
2017-09-28T04:19:18.786Z,91.30
2017-09-28T04:21:46.418Z,90.60
2017-09-28T04:24:13.297Z,90.40
2017-09-28T04:26:39.653Z,90.30
2017-09-28T04:29:07.321Z,90.60
2017-09-28T04:31:33.731Z,90.60
2017-09-28T04:34:00.821Z,91.30
2017-09-28T04:36:27.211Z,91.30
2017-09-28T04:38:54.367Z,92.40
2017-09-28T04:41:20.707Z,92.30
2017-09-28T04:43:47.093Z,92.30
2017-09-28T04:46:13.481Z,92.30
2017-09-28T04:48:39.839Z,92.40
2017-09-28T04:51:06.265Z,92.60
2017-09-28T04:53:32.663Z,93.00
2017-09-28T04:55:59.487Z,93.00
2017-09-28T04:58:26.634Z,93.60
2017-09-28T05:00:53.738Z,93.20
2017-09-28T05:03:20.124Z,93.20
2017-09-28T05:05:46.532Z,93.20
2017-09-28T05:08:13.665Z,91.20
2017-09-28T05:10:40.018Z,91.20
2017-09-28T05:13:07.119Z,91.50
2017-09-28T05:15:33.490Z,91.50
2017-09-28T05:18:00.627Z,92.20
2017-09-28T05:20:26.970Z,92.20
2017-09-28T05:22:54.061Z,93.50
2017-09-28T05:25:20.463Z,93.50
2017-09-28T05:27:46.882Z,93.80
2017-09-28T05:30:13.991Z,94.50
2017-09-28T05:32:40.400Z,94.50
2017-09-28T05:35:06.782Z,94.90
2017-09-28T05:37:33.872Z,95.70
2017-09-28T05:40:00.298Z,95.60
2017-09-28T05:42:26.674Z,95.70
2017-09-28T05:44:53.065Z,95.90
2017-09-28T05:47:19.455Z,96.00
2017-09-28T05:49:45.819Z,96.30
2017-09-28T05:52:12.314Z,96.50
2017-09-28T05:54:39.506Z,96.90
2017-09-28T05:57:05.892Z,96.70
2017-09-28T05:59:32.991Z,96.90
2017-09-28T06:01:59.406Z,96.90
2017-09-28T06:04:25.818Z,97.00
2017-09-28T06:06:52.514Z,97.10
2017-09-28T06:09:18.907Z,97.10
2017-09-28T06:11:46.053Z,97.70
2017-09-28T06:14:12.469Z,97.70
2017-09-28T06:16:38.826Z,97.80
2017-09-28T06:19:05.197Z,97.60
2017-09-28T06:21:32.301Z,97.70
2017-09-28T06:23:58.695Z,97.60
2017-09-28T06:26:25.015Z,97.60
2017-09-28T06:28:52.139Z,97.70
2017-09-28T06:31:18.563Z,97.70
2017-09-28T06:33:44.918Z,98.00
2017-09-28T06:36:12.027Z,98.30
2017-09-28T06:38:38.400Z,98.20
2017-09-28T06:41:05.833Z,98.60
2017-09-28T06:43:32.294Z,98.30
2017-09-28T06:45:58.733Z,98.40
2017-09-28T06:48:25.166Z,98.20
2017-09-28T06:50:51.537Z,98.20
2017-09-28T06:53:17.938Z,98.60
2017-09-28T06:55:44.397Z,98.80
2017-09-28T06:58:10.770Z,98.60
2017-09-28T07:00:37.921Z,98.50
2017-09-28T07:03:05.384Z,98.60
2017-09-28T07:05:31.786Z,98.60
2017-09-28T07:07:58.925Z,99.00
2017-09-28T07:10:25.310Z,99.00
2017-09-28T07:12:51.664Z,99.10
2017-09-28T07:15:18.046Z,99.10
2017-09-28T07:17:44.442Z,99.60
2017-09-28T07:20:10.812Z,99.90
2017-09-28T07:22:37.213Z,99.90
2017-09-28T07:25:03.583Z,99.90
2017-09-28T07:27:29.912Z,99.60
2017-09-28T07:29:56.621Z,98.60
2017-09-28T07:32:23.036Z,97.90
2017-09-28T07:34:50.157Z,96.90
2017-09-28T07:37:16.560Z,96.80
2017-09-28T07:39:42.925Z,96.60
2017-09-28T07:42:09.283Z,96.40
2017-09-28T07:44:35.663Z,96.30
2017-09-28T07:47:02.038Z,95.70
2017-09-28T07:49:28.359Z,95.40
2017-09-28T07:51:54.790Z,95.40
2017-09-28T07:54:21.264Z,95.60
2017-09-28T07:56:47.616Z,95.70
2017-09-28T07:59:13.975Z,95.70
2017-09-28T08:01:40.337Z,95.70
2017-09-28T08:04:07.481Z,95.70
2017-09-28T08:06:34.670Z,96.20
2017-09-28T08:09:01.797Z,95.80
2017-09-28T08:11:28.174Z,95.80
2017-09-28T08:13:54.822Z,95.70
2017-09-28T08:16:21.218Z,95.70
2017-09-28T08:18:47.586Z,95.50
2017-09-28T08:21:13.981Z,95.30
2017-09-28T08:23:40.329Z,95.20
2017-09-28T08:26:19.687Z,95.10
2017-09-28T08:28:46.138Z,95.00
2017-09-28T08:37:13.565Z,94.50
2017-09-28T08:39:39.950Z,94.50
2017-09-28T08:42:07.103Z,94.00
2017-09-28T08:44:34.169Z,94.00
2017-09-28T08:47:00.609Z,94.00
2017-09-28T08:49:26.976Z,94.10
2017-09-28T08:51:53.352Z,93.70
2017-09-28T08:54:19.817Z,93.50
2017-09-28T08:56:46.602Z,93.20
2017-09-28T08:59:12.967Z,93.00
2017-09-28T09:01:39.327Z,93.00
2017-09-28T09:04:05.700Z,92.10
2017-09-28T09:06:32.776Z,91.70
2017-09-28T09:08:59.134Z,91.70
2017-09-28T09:11:25.528Z,90.50
2017-09-28T09:13:51.935Z,89.40
2017-09-28T09:16:19.089Z,87.60
2017-09-28T09:18:45.463Z,87.60
2017-09-28T09:21:11.786Z,87.70
2017-09-28T09:23:38.184Z,84.80
2017-09-28T09:26:05.280Z,83.90
2017-09-28T09:28:31.665Z,83.90
2017-09-28T09:30:58.057Z,83.20
2017-09-28T09:33:24.385Z,82.10
2017-09-28T09:35:50.865Z,80.40
2017-09-28T09:38:17.200Z,78.90
2017-09-28T09:40:43.621Z,76.90
2017-09-28T09:46:10.500Z,75.60
2017-09-28T09:48:36.844Z,75.20
2017-09-28T09:51:03.206Z,75.60
2017-09-28T09:53:29.515Z,76.30
2017-09-28T09:55:55.863Z,75.70
2017-09-28T09:58:22.265Z,74.20
2017-09-28T10:00:48.635Z,73.30
2017-09-28T10:03:15.009Z,72.70
2017-09-28T10:05:41.354Z,72.70
2017-09-28T10:08:18.658Z,71.90
2017-09-28T10:10:51.036Z,71.80
2017-09-28T10:13:25.798Z,71.40
2017-09-28T10:16:06.820Z,71.00
2017-09-28T10:18:33.413Z,70.60
2017-09-28T10:20:59.823Z,70.60
2017-09-28T10:23:26.899Z,70.60
2017-09-28T10:25:53.261Z,70.60
2017-09-28T10:28:19.577Z,70.40
2017-09-28T10:30:45.981Z,70.00
2017-09-28T10:33:12.333Z,68.80
2017-09-28T10:35:38.750Z,68.40
2017-09-28T10:38:05.148Z,67.60
2017-09-28T10:40:31.865Z,66.10
2017-09-28T10:42:58.326Z,65.50
2017-09-28T10:45:25.437Z,65.40
2017-09-28T10:47:52.612Z,63.30
2017-09-28T10:50:19.713Z,62.80
2017-09-28T10:52:46.128Z,62.70
2017-09-28T10:55:12.555Z,61.80
2017-09-28T10:57:39.181Z,61.20
2017-09-28T11:00:05.576Z,60.70
2017-09-28T11:02:31.936Z,60.90
2017-09-28T11:04:58.298Z,60.30
2017-09-28T11:07:25.930Z,59.70
2017-09-28T11:09:52.334Z,59.50
2017-09-28T11:12:19.386Z,57.70
2017-09-28T11:14:46.052Z,57.60
2017-09-28T11:17:12.389Z,56.20
2017-09-28T11:19:38.745Z,56.50
2017-09-28T11:22:05.117Z,56.00
2017-09-28T11:24:31.471Z,56.20
2017-09-28T11:26:57.866Z,56.90
2017-09-28T11:29:24.935Z,56.20
2017-09-28T11:31:51.308Z,56.10
2017-09-28T11:34:17.658Z,56.00
2017-09-28T11:36:44.022Z,56.00
2017-09-28T11:39:10.406Z,55.80
2017-09-28T11:41:36.735Z,55.90
2017-09-28T11:44:03.110Z,56.20
2017-09-28T11:46:29.489Z,56.60
2017-09-28T11:48:55.833Z,57.10
2017-09-28T11:51:22.197Z,56.80
2017-09-28T11:53:48.858Z,56.20
2017-09-28T11:56:15.218Z,56.40
2017-09-28T11:58:41.575Z,56.90
2017-09-28T12:01:08.717Z,57.50
2017-09-28T12:03:35.809Z,57.60
2017-09-28T12:06:02.216Z,57.50
2017-09-28T12:08:28.580Z,57.70
2017-09-28T12:10:54.926Z,57.60
2017-09-28T12:13:21.340Z,57.30
2017-09-28T12:15:47.697Z,57.30
2017-09-28T12:18:14.063Z,57.20
2017-09-28T12:20:40.424Z,57.00
2017-09-28T12:23:07.534Z,56.90
2017-09-28T12:25:33.884Z,56.90
2017-09-28T12:28:00.269Z,56.20
2017-09-28T12:30:26.590Z,55.30
2017-09-28T12:32:52.950Z,54.70
2017-09-28T12:35:19.369Z,55.30
2017-09-28T12:37:46.066Z,56.50
2017-09-28T12:40:12.443Z,56.30
2017-09-28T12:42:39.579Z,56.00
2017-09-28T12:45:06.012Z,56.00
2017-09-28T12:47:33.129Z,56.20
2017-09-28T12:49:59.503Z,56.00
2017-09-28T12:52:26.603Z,57.00
2017-09-28T12:54:52.977Z,57.00
2017-09-28T12:57:20.084Z,56.60
2017-09-28T12:59:46.807Z,56.50
2017-09-28T13:02:13.153Z,56.70
2017-09-28T13:04:39.528Z,57.00
2017-09-28T13:07:06.685Z,57.00
2017-09-28T13:09:33.043Z,56.90
2017-09-28T13:11:59.448Z,56.40
2017-09-28T13:14:25.835Z,55.90
2017-09-28T13:16:52.204Z,56.20
2017-09-28T13:19:18.604Z,56.50
2017-09-28T13:21:45.784Z,56.80
2017-09-28T13:24:12.647Z,56.80
2017-09-28T13:26:39.330Z,56.90
2017-09-28T13:29:05.753Z,57.20
2017-09-28T13:31:32.114Z,57.10
2017-09-28T13:33:58.563Z,57.20
2017-09-28T13:36:24.960Z,57.50
2017-09-28T13:38:51.357Z,58.10
2017-09-28T13:41:17.928Z,58.50
2017-09-28T13:43:45.017Z,58.80
2017-09-28T13:46:11.379Z,58.80
2017-09-28T13:48:38.273Z,58.90
2017-09-28T13:51:04.698Z,59.20
2017-09-28T13:53:31.074Z,59.90
2017-09-28T13:55:57.460Z,60.50
2017-09-28T13:58:23.919Z,61.30
2017-09-28T14:00:50.287Z,61.80
2017-09-28T14:03:16.680Z,61.70
2017-09-28T14:05:43.321Z,61.00
2017-09-28T14:08:09.701Z,60.40
2017-09-28T14:10:36.034Z,60.00
2017-09-28T14:13:03.152Z,59.90
2017-09-28T14:15:29.504Z,59.80
2017-09-28T14:17:56.670Z,59.60
2017-09-28T14:20:23.031Z,59.60
2017-09-28T14:22:49.421Z,59.80
2017-09-28T14:25:16.525Z,59.90
2017-09-28T14:27:42.896Z,59.90
2017-09-28T14:30:09.311Z,59.80
2017-09-28T14:32:36.143Z,60.20
2017-09-28T14:35:02.613Z,60.70
2017-09-28T14:37:29.019Z,60.70
2017-09-28T14:39:56.151Z,60.70
2017-09-28T14:42:22.538Z,60.70
2017-09-28T14:44:48.912Z,61.10
2017-09-28T14:47:15.310Z,61.20
2017-09-28T14:49:41.933Z,61.70
2017-09-28T14:52:08.353Z,61.90
2017-09-28T14:54:34.769Z,61.70
2017-09-28T14:57:01.161Z,62.30
2017-09-28T14:59:27.539Z,61.30
2017-09-28T15:01:53.919Z,61.30
2017-09-28T15:04:20.286Z,61.40
2017-09-28T15:06:46.640Z,61.90
2017-09-28T15:09:13.057Z,62.00
2017-09-28T15:11:39.693Z,61.70
2017-09-28T15:14:06.069Z,61.80
2017-09-28T15:16:37.067Z,62.10
2017-09-28T15:19:04.604Z,62.10
2017-09-28T15:21:31.772Z,61.90
2017-09-28T15:23:58.129Z,61.90
2017-09-28T15:26:24.661Z,61.80
2017-09-28T15:28:51.033Z,62.40
2017-09-28T15:31:17.379Z,63.00
2017-09-28T15:33:50.712Z,63.60
2017-09-28T15:36:17.053Z,64.20
2017-09-28T15:38:43.442Z,65.20
2017-09-28T15:41:09.783Z,65.00
2017-09-28T15:43:36.159Z,65.20
2017-09-28T15:46:02.522Z,65.50
2017-09-28T15:48:28.908Z,65.40
2017-09-28T15:50:55.305Z,64.40
2017-09-28T15:53:21.704Z,64.20
2017-09-28T15:55:48.846Z,64.90
2017-09-28T15:58:15.968Z,64.70
2017-09-28T16:00:42.341Z,64.70
2017-09-28T16:03:08.729Z,65.50
2017-09-28T16:05:35.108Z,65.60
2017-09-28T16:08:01.492Z,65.80
2017-09-28T16:10:27.814Z,66.30
2017-09-28T16:12:54.953Z,68.50
2017-09-28T16:15:21.299Z,67.80
2017-09-28T16:17:47.691Z,68.40
2017-09-28T16:20:14.060Z,69.80
2017-09-28T16:22:40.433Z,70.80
2017-09-28T16:25:06.801Z,71.90
2017-09-28T16:27:33.222Z,72.70
2017-09-28T16:29:59.588Z,73.30
2017-09-28T16:32:26.039Z,73.70
2017-09-28T16:34:53.181Z,74.70
2017-09-28T16:37:20.269Z,75.60
2017-09-28T16:39:46.661Z,75.60
2017-09-28T16:44:46.820Z,77.30
2017-09-28T16:47:13.180Z,78.20
2017-09-28T16:49:39.606Z,79.00
2017-09-28T16:52:06.050Z,80.00
2017-09-28T16:54:32.763Z,81.00
2017-09-28T16:56:59.197Z,82.20
2017-09-28T16:59:25.607Z,82.90
2017-09-28T17:01:52.025Z,83.70
2017-09-28T17:04:18.449Z,84.50
2017-09-28T17:06:44.861Z,85.80
2017-09-28T17:09:11.323Z,86.70
2017-09-28T17:11:37.707Z,87.20
2017-09-28T17:14:04.064Z,88.10
2017-09-28T17:16:31.209Z,90.00
2017-09-28T17:18:58.337Z,90.30
2017-09-28T17:21:24.712Z,90.30
2017-09-28T17:23:51.117Z,90.70
2017-09-28T17:26:18.316Z,91.30
2017-09-28T17:28:44.724Z,91.30
2017-09-28T17:31:11.083Z,91.50
2017-09-28T17:33:37.476Z,91.70
2017-09-28T17:36:03.907Z,91.90
2017-09-28T17:38:30.278Z,92.00
2017-09-28T17:40:56.713Z,92.20
2017-09-28T17:43:23.094Z,92.30
2017-09-28T17:45:49.522Z,92.40
2017-09-28T17:48:15.913Z,92.50
2017-09-28T17:50:42.683Z,92.60
2017-09-28T17:53:09.808Z,92.80
2017-09-28T17:55:36.218Z,92.80
2017-09-28T17:58:02.619Z,93.00
2017-09-28T18:00:29.080Z,93.10
2017-09-28T18:02:55.527Z,93.30
2017-09-28T18:05:21.949Z,93.40
2017-09-28T18:07:48.627Z,93.50
2017-09-28T18:10:15.053Z,93.60
2017-09-28T18:12:42.197Z,93.80
2017-09-28T18:15:09.333Z,94.00
2017-09-28T18:17:35.734Z,93.90
2017-09-28T18:20:02.225Z,94.00
2017-09-28T18:22:29.435Z,94.10
2017-09-28T18:24:56.298Z,94.10
2017-09-28T18:27:23.459Z,94.30
2017-09-28T18:29:49.973Z,94.20
2017-09-28T18:32:17.211Z,94.40
2017-09-28T18:34:43.805Z,94.40
2017-09-28T18:39:43.319Z,94.60
2017-09-28T18:42:09.852Z,94.70
2017-09-28T18:44:36.341Z,94.80
2017-09-28T18:47:02.782Z,94.90
2017-09-28T18:49:30.040Z,95.00
2017-09-28T18:51:57.253Z,95.00
2017-09-28T18:54:23.698Z,95.00
2017-09-28T18:56:50.214Z,95.10
2017-09-28T18:59:16.738Z,95.10
2017-09-28T19:01:43.234Z,95.20
2017-09-28T19:04:09.777Z,95.30
2017-09-28T19:06:36.273Z,95.50
2017-09-28T19:09:02.828Z,95.50
2017-09-28T19:11:29.357Z,95.70
2017-09-28T19:13:55.838Z,95.70
2017-09-28T19:16:22.352Z,95.70
2017-09-28T19:18:48.888Z,95.80
2017-09-28T19:21:15.401Z,95.80
2017-09-28T19:23:41.863Z,95.80
2017-09-28T19:26:08.351Z,96.00
2017-09-28T19:28:34.846Z,96.00
2017-09-28T19:31:01.326Z,96.00
2017-09-28T19:33:27.799Z,96.10
2017-09-28T19:35:54.269Z,96.10
2017-09-28T19:38:21.530Z,96.30
2017-09-28T19:40:48.053Z,96.30
2017-09-28T19:43:14.548Z,96.40
2017-09-28T19:45:40.992Z,96.40
2017-09-28T19:48:07.467Z,96.40
2017-09-28T19:50:33.966Z,96.50
2017-09-28T19:53:00.479Z,96.60
2017-09-28T19:55:26.927Z,96.80
2017-09-28T19:57:53.450Z,96.60
2017-09-28T20:00:19.964Z,96.60
2017-09-28T20:02:46.401Z,96.60
2017-09-28T20:05:12.886Z,96.80
2017-09-28T20:07:46.931Z,96.80
2017-09-28T20:10:13.363Z,96.80
2017-09-28T20:12:39.765Z,96.80
2017-09-28T20:15:06.173Z,96.80
2017-09-28T20:17:32.639Z,96.80
2017-09-28T20:19:59.082Z,96.80
2017-09-28T20:22:25.585Z,96.80
2017-09-28T20:24:51.993Z,96.80
2017-09-28T20:27:18.375Z,96.80
2017-09-28T20:29:44.771Z,96.90
2017-09-28T20:32:11.951Z,97.00
2017-09-28T20:34:38.384Z,96.90
2017-09-28T20:37:04.793Z,97.00
2017-09-28T20:39:31.249Z,97.00
2017-09-28T20:41:57.689Z,97.00
2017-09-28T20:44:24.091Z,97.10
2017-09-28T20:46:50.472Z,97.10
2017-09-28T20:49:16.916Z,97.10
2017-09-28T20:51:43.388Z,97.10
2017-09-28T20:54:09.828Z,97.10
2017-09-28T20:56:36.261Z,97.20
2017-09-28T20:59:02.682Z,97.10
2017-09-28T21:01:29.073Z,97.20
2017-09-28T21:03:55.492Z,97.20
2017-09-28T21:06:22.181Z,97.20
2017-09-28T21:08:48.582Z,97.20
2017-09-28T21:11:14.934Z,97.20
2017-09-28T21:13:42.060Z,97.20
2017-09-28T21:16:08.434Z,97.20
2017-09-28T21:18:34.843Z,97.20
2017-09-28T21:21:01.215Z,97.30
2017-09-28T21:23:27.610Z,97.30
2017-09-28T21:25:54.004Z,97.20
2017-09-28T21:28:21.169Z,97.20
2017-09-28T21:30:47.523Z,97.20
2017-09-28T21:33:13.907Z,97.20
2017-09-28T21:35:40.366Z,97.20
2017-09-28T21:38:07.516Z,97.30
2017-09-28T21:40:34.643Z,97.30
2017-09-28T21:43:01.029Z,97.30
2017-09-28T21:45:27.445Z,97.40
2017-09-28T21:47:53.788Z,97.40
2017-09-28T21:50:21.608Z,97.40
2017-09-28T21:52:48.728Z,97.40
2017-09-28T21:55:15.107Z,97.40
2017-09-28T21:57:41.530Z,97.40
2017-09-28T22:00:08.650Z,97.40
2017-09-28T22:02:35.079Z,97.30
2017-09-28T22:05:01.455Z,97.30
2017-09-28T22:07:27.874Z,97.30
2017-09-28T22:10:01.325Z,97.30
2017-09-28T22:12:27.722Z,97.30
2017-09-28T22:14:54.116Z,97.30
2017-09-28T22:17:21.283Z,97.40
2017-09-28T22:19:54.516Z,97.40
2017-09-28T22:22:20.870Z,97.40
2017-09-28T22:24:47.266Z,97.40
2017-09-28T22:27:13.643Z,97.50
2017-09-28T22:29:40.306Z,97.50
2017-09-28T22:32:06.744Z,97.60
2017-09-28T22:34:33.265Z,97.60
2017-09-28T22:36:59.598Z,97.60
2017-09-28T22:39:25.969Z,97.70
2017-09-28T22:41:52.395Z,97.80
2017-09-28T22:44:18.855Z,97.70
2017-09-28T22:46:45.500Z,97.80
2017-09-28T22:49:11.891Z,97.70
2017-09-28T22:51:38.250Z,97.80
2017-09-28T22:54:04.624Z,97.80
2017-09-28T22:56:30.992Z,97.80
2017-09-28T22:58:57.365Z,97.80
2017-09-28T23:01:24.455Z,97.90
2017-09-28T23:03:50.841Z,97.90
2017-09-28T23:06:18.475Z,97.80
2017-09-28T23:08:44.860Z,97.90
2017-09-28T23:11:11.218Z,98.20
2017-09-28T23:13:37.556Z,98.40
2017-09-28T23:16:03.947Z,98.40
2017-09-28T23:18:31.164Z,98.40
2017-09-28T23:20:57.566Z,98.60
2017-09-28T23:23:25.362Z,98.30
2017-09-28T23:25:52.496Z,98.50
2017-09-28T23:28:18.876Z,98.50
2017-09-28T23:30:45.235Z,98.40
2017-09-28T23:33:11.622Z,98.20
2017-09-28T23:35:38.052Z,98.10
2017-09-28T23:38:04.456Z,98.00
2017-09-28T23:40:30.876Z,97.90
2017-09-28T23:42:57.261Z,97.80
2017-09-28T23:45:23.659Z,97.80
2017-09-28T23:47:50.155Z,97.70
2017-09-28T23:50:16.518Z,97.60
2017-09-28T23:52:42.889Z,97.80
2017-09-28T23:55:09.324Z,97.80
2017-09-28T23:57:36.488Z,97.80
